createdAt,value
2022-09-12T00:01:20.259Z,49.96
2022-09-12T00:03:47.205Z,49.82
2022-09-12T00:06:22.548Z,49.99
2022-09-12T00:08:49.840Z,49.57
2022-09-12T00:11:16.725Z,49.87
2022-09-12T00:13:43.773Z,50.05
2022-09-12T00:16:23.899Z,50.22
2022-09-12T00:18:51.383Z,49.98
2022-09-12T00:21:18.321Z,49.64
2022-09-12T00:23:45.355Z,49.53
2022-09-12T00:26:12.318Z,49.80
2022-09-12T00:28:39.665Z,49.62
2022-09-12T00:31:14.485Z,49.68
2022-09-12T00:33:41.563Z,49.78
2022-09-12T00:36:26.638Z,50.10
2022-09-12T00:38:54.671Z,50.15
2022-09-12T00:41:28.030Z,50.06
2022-09-12T00:43:59.773Z,50.20
2022-09-12T00:46:36.097Z,49.81
2022-09-12T00:49:13.419Z,49.93
2022-09-12T00:51:41.655Z,50.01
2022-09-12T00:54:11.938Z,49.80
2022-09-12T00:56:39.072Z,50.03
2022-09-12T00:59:10.889Z,49.84
2022-09-12T01:01:37.871Z,49.89
2022-09-12T01:04:04.754Z,50.08
2022-09-12T01:06:40.680Z,49.89
2022-09-12T01:09:08.155Z,49.87
2022-09-12T01:11:36.351Z,50.10
2022-09-12T01:14:05.938Z,50.18
2022-09-12T01:16:34.704Z,49.90
2022-09-12T01:19:38.680Z,49.94
2022-09-12T01:22:20.532Z,50.25
2022-09-12T01:24:58.874Z,50.04
2022-09-12T01:28:03.171Z,50.25
2022-09-12T01:30:52.357Z,50.10
2022-09-12T01:33:30.709Z,50.12
2022-09-12T01:36:31.591Z,50.22
2022-09-12T01:39:04.957Z,50.09
2022-09-12T01:41:31.839Z,50.28
2022-09-12T01:44:21.926Z,50.33
2022-09-12T01:46:53.080Z,50.23
2022-09-12T01:49:56.011Z,50.11
2022-09-12T01:52:28.378Z,50.30
2022-09-12T01:55:20.288Z,50.15
2022-09-12T01:58:04.561Z,50.41
2022-09-12T02:00:35.901Z,50.25
2022-09-12T02:03:10.447Z,50.33
2022-09-12T02:05:47.971Z,50.38
2022-09-12T02:08:17.908Z,50.28
2022-09-12T02:10:52.737Z,50.39
2022-09-12T02:13:23.404Z,50.34
2022-09-12T02:15:53.039Z,50.44
2022-09-12T02:18:19.884Z,50.38
2022-09-12T02:20:48.990Z,50.07
2022-09-12T02:23:21.809Z,50.39
2022-09-12T02:25:49.622Z,50.35
2022-09-12T02:28:25.493Z,50.31
2022-09-12T02:30:56.939Z,50.59
2022-09-12T02:33:27.684Z,50.71
2022-09-12T02:35:59.334Z,50.66
2022-09-12T02:38:44.424Z,50.46
2022-09-12T02:41:12.326Z,50.59
2022-09-12T02:43:39.357Z,50.65
2022-09-12T02:46:07.630Z,50.58
2022-09-12T02:48:35.013Z,50.52
2022-09-12T02:51:01.897Z,50.76
2022-09-12T02:53:28.808Z,50.78
2022-09-12T02:55:55.757Z,50.75
2022-09-12T02:58:25.419Z,50.76
2022-09-12T03:01:24.281Z,50.71
2022-09-12T03:04:05.895Z,50.84
2022-09-12T03:06:57.623Z,50.51
2022-09-12T03:09:44.128Z,50.66
2022-09-12T03:12:16.870Z,50.50
2022-09-12T03:15:03.778Z,50.63
2022-09-12T03:17:31.343Z,50.71
2022-09-12T03:20:06.881Z,50.72
2022-09-12T03:22:50.937Z,50.39
2022-09-12T03:25:32.290Z,50.46
2022-09-12T03:28:10.225Z,50.52
2022-09-12T03:30:41.665Z,50.73
2022-09-12T03:33:11.725Z,51.05
2022-09-12T03:35:38.664Z,51.30
2022-09-12T03:38:08.004Z,51.51
2022-09-12T03:40:35.923Z,51.47
2022-09-12T03:43:03.283Z,51.50
2022-09-12T03:45:30.407Z,50.89
2022-09-12T03:47:57.609Z,50.30
2022-09-12T03:50:24.582Z,49.82
2022-09-12T03:52:51.445Z,49.52
2022-09-12T03:55:18.766Z,49.56
2022-09-12T03:57:45.672Z,49.31
2022-09-12T04:00:17.642Z,49.16
2022-09-12T04:02:46.827Z,49.16
2022-09-12T04:05:13.874Z,48.59
2022-09-12T04:07:40.824Z,48.13
2022-09-12T04:10:09.642Z,48.53
2022-09-12T04:12:37.009Z,48.19
2022-09-12T04:15:04.574Z,48.15
2022-09-12T04:17:33.924Z,48.20
2022-09-12T04:20:01.153Z,48.12
2022-09-12T04:22:28.151Z,47.81
2022-09-12T04:24:55.388Z,48.06
2022-09-12T04:27:22.388Z,47.38
2022-09-12T04:29:49.244Z,47.70
2022-09-12T04:32:16.200Z,47.50
2022-09-12T04:34:43.290Z,47.31
2022-09-12T04:37:11.857Z,47.32
2022-09-12T04:39:39.045Z,46.90
2022-09-12T04:42:06.313Z,46.58
2022-09-12T04:44:33.231Z,46.41
2022-09-12T04:47:00.362Z,45.86
2022-09-12T04:49:27.238Z,45.97
2022-09-12T04:51:55.316Z,45.35
2022-09-12T04:54:22.358Z,45.24
2022-09-12T04:56:49.782Z,45.15
2022-09-12T04:59:20.823Z,45.00
2022-09-12T05:01:48.639Z,45.08
2022-09-12T05:04:15.862Z,44.84
2022-09-12T05:06:42.930Z,44.79
2022-09-12T05:09:11.829Z,44.60
2022-09-12T05:12:03.315Z,43.95
2022-09-12T05:14:27.134Z,44.03
2022-09-12T05:16:54.297Z,43.68
2022-09-12T05:19:21.326Z,43.48
2022-09-12T05:21:48.368Z,43.55
2022-09-12T05:24:15.440Z,43.73
2022-09-12T05:26:42.760Z,43.38
2022-09-12T05:29:09.806Z,42.65
2022-09-12T05:31:37.739Z,42.66
2022-09-12T05:34:07.147Z,42.43
2022-09-12T05:36:34.470Z,42.45
2022-09-12T05:39:01.618Z,42.17
2022-09-12T05:41:30.949Z,42.41
2022-09-12T05:43:59.563Z,42.13
2022-09-12T05:46:28.157Z,41.30
2022-09-12T05:48:56.548Z,41.42
2022-09-12T05:51:25.595Z,41.11
2022-09-12T05:54:00.142Z,40.67
2022-09-12T05:56:34.454Z,40.61
2022-09-12T05:59:03.438Z,40.57
2022-09-12T06:01:31.424Z,40.22
2022-09-12T06:04:01.039Z,40.24
2022-09-12T06:06:29.111Z,40.03
2022-09-12T06:09:00.866Z,39.85
2022-09-12T06:11:29.817Z,39.96
2022-09-12T06:13:58.017Z,39.56
2022-09-12T06:16:27.260Z,39.62
2022-09-12T06:18:55.895Z,39.34
2022-09-12T06:21:23.407Z,39.23
2022-09-12T06:23:50.822Z,38.68
2022-09-12T06:26:18.743Z,38.74
2022-09-12T06:28:45.756Z,38.48
2022-09-12T06:31:17.330Z,38.63
2022-09-12T06:33:46.401Z,38.90
2022-09-12T06:36:16.159Z,38.39
2022-09-12T06:38:43.276Z,38.44
2022-09-12T06:41:12.406Z,38.51
2022-09-12T06:43:40.116Z,38.03
2022-09-12T06:46:07.834Z,38.19
2022-09-12T06:48:38.327Z,38.02
2022-09-12T06:51:11.287Z,37.89
2022-09-12T06:53:38.440Z,38.02
2022-09-12T06:56:24.649Z,37.96
2022-09-12T06:58:51.782Z,37.52
2022-09-12T07:01:36.742Z,37.81
2022-09-12T07:04:04.219Z,38.21
2022-09-12T07:06:39.967Z,38.06
2022-09-12T07:09:08.881Z,37.86
2022-09-12T07:11:36.739Z,38.14
2022-09-12T07:14:05.032Z,38.06
2022-09-12T07:16:32.020Z,37.73
2022-09-12T07:19:00.287Z,37.51
2022-09-12T07:21:27.746Z,37.72
2022-09-12T07:24:00.945Z,37.73
2022-09-12T07:26:29.374Z,37.41
2022-09-12T07:29:12.888Z,37.43
2022-09-12T07:31:44.083Z,36.97
2022-09-12T07:34:11.285Z,37.12
2022-09-12T07:36:39.214Z,37.15
2022-09-12T07:39:06.169Z,37.03
2022-09-12T07:41:36.249Z,37.03
2022-09-12T07:44:03.518Z,36.87
2022-09-12T07:46:31.239Z,36.64
2022-09-12T07:48:58.728Z,36.06
2022-09-12T07:51:26.804Z,35.86
2022-09-12T07:53:53.951Z,35.88
2022-09-12T07:56:22.049Z,36.44
2022-09-12T07:58:51.018Z,36.57
2022-09-12T08:01:23.448Z,36.85
2022-09-12T08:03:59.472Z,37.14
2022-09-12T08:06:27.734Z,36.92
2022-09-12T08:08:55.566Z,37.79
2022-09-12T08:11:22.870Z,38.10
2022-09-12T08:13:55.412Z,38.46
2022-09-12T08:16:24.568Z,38.42
2022-09-12T08:18:51.768Z,37.97
2022-09-12T08:21:28.258Z,37.98
2022-09-12T08:24:00.874Z,37.70
2022-09-12T08:26:28.333Z,37.70
2022-09-12T08:28:55.303Z,37.92
2022-09-12T08:31:23.446Z,38.02
2022-09-12T08:33:50.597Z,38.01
2022-09-12T08:36:20.380Z,38.13
2022-09-12T08:38:48.727Z,38.04
2022-09-12T08:41:18.452Z,38.10
2022-09-12T08:43:54.541Z,38.12
2022-09-12T08:46:28.796Z,37.87
2022-09-12T08:48:56.011Z,37.74
2022-09-12T08:51:23.170Z,38.24
2022-09-12T08:53:50.775Z,37.92
2022-09-12T08:56:17.728Z,38.10
2022-09-12T08:58:45.485Z,37.67
2022-09-12T09:01:21.507Z,37.65
2022-09-12T09:04:01.642Z,37.59
2022-09-12T09:06:37.521Z,37.68
2022-09-12T09:09:07.253Z,37.34
2022-09-12T09:11:44.055Z,37.32
2022-09-12T09:14:50.779Z,37.25
2022-09-12T09:17:45.112Z,36.92
2022-09-12T09:20:30.233Z,37.22
2022-09-12T09:23:13.083Z,37.65
2022-09-12T09:25:44.774Z,37.07
2022-09-12T09:28:17.696Z,37.05
2022-09-12T09:30:45.184Z,37.10
2022-09-12T09:33:23.732Z,36.81
2022-09-12T09:35:56.997Z,36.86
2022-09-12T09:38:49.917Z,37.11
2022-09-12T09:41:48.877Z,36.77
2022-09-12T09:44:15.979Z,36.62
2022-09-12T09:46:42.991Z,36.83
2022-09-12T09:49:14.680Z,36.79
2022-09-12T09:51:41.882Z,37.28
2022-09-12T09:54:17.941Z,37.56
2022-09-12T09:56:45.019Z,37.37
2022-09-12T09:59:30.386Z,37.05
2022-09-12T10:02:04.043Z,36.85
2022-09-12T10:04:41.073Z,36.93
2022-09-12T10:07:18.966Z,36.52
2022-09-12T10:10:07.688Z,36.87
2022-09-12T10:12:34.742Z,36.20
2022-09-12T10:15:03.077Z,35.98
2022-09-12T10:17:42.517Z,36.33
2022-09-12T10:20:40.009Z,36.30
2022-09-12T10:23:19.169Z,36.01
2022-09-12T10:25:48.118Z,36.24
2022-09-12T10:28:29.612Z,36.17
2022-09-12T10:30:56.695Z,35.55
2022-09-12T10:33:24.531Z,34.74
2022-09-12T10:35:51.641Z,34.89
2022-09-12T10:38:28.580Z,34.93
2022-09-12T10:41:00.513Z,34.75
2022-09-12T10:43:31.213Z,34.77
2022-09-12T10:45:59.183Z,35.00
2022-09-12T10:48:30.408Z,34.84
2022-09-12T10:51:00.934Z,35.10
2022-09-12T10:53:41.648Z,34.75
2022-09-12T10:56:11.014Z,34.88
2022-09-12T10:59:05.956Z,34.86
2022-09-12T11:01:32.805Z,34.81
2022-09-12T11:04:20.656Z,34.61
2022-09-12T11:07:16.877Z,34.84
2022-09-12T11:10:19.327Z,34.53
2022-09-12T11:13:10.919Z,34.68
2022-09-12T11:16:10.295Z,34.76
2022-09-12T11:18:37.195Z,35.33
2022-09-12T11:21:23.155Z,35.03
2022-09-12T11:24:15.031Z,34.50
2022-09-12T11:26:51.222Z,34.79
2022-09-12T11:29:21.432Z,35.09
2022-09-12T11:31:51.403Z,35.63
2022-09-12T11:34:25.693Z,34.80
2022-09-12T11:36:58.608Z,35.26
2022-09-12T11:39:37.770Z,35.28
2022-09-12T11:42:05.733Z,34.96
2022-09-12T11:44:40.261Z,35.22
2022-09-12T11:47:08.436Z,35.42
2022-09-12T11:49:38.331Z,35.28
2022-09-12T11:52:11.194Z,35.66
2022-09-12T11:54:41.933Z,35.59
2022-09-12T11:57:19.273Z,35.53
2022-09-12T11:59:54.380Z,35.78
2022-09-12T12:02:34.127Z,36.22
2022-09-12T12:05:20.755Z,36.08
2022-09-12T12:07:58.365Z,35.57
2022-09-12T12:10:39.879Z,35.49
2022-09-12T12:13:35.837Z,35.77
2022-09-12T12:16:16.632Z,35.58
2022-09-12T12:18:43.832Z,36.03
2022-09-12T12:21:32.076Z,36.35
2022-09-12T12:24:04.898Z,36.35
2022-09-12T12:27:00.847Z,35.96
2022-09-12T12:29:44.035Z,36.49
2022-09-12T12:32:11.221Z,35.86
2022-09-12T12:34:42.047Z,36.14
2022-09-12T12:37:25.760Z,35.81
2022-09-12T12:40:02.895Z,36.20
2022-09-12T12:42:32.805Z,36.14
2022-09-12T12:45:03.749Z,35.92
2022-09-12T12:47:40.261Z,35.69
2022-09-12T12:50:10.276Z,35.98
2022-09-12T12:52:53.929Z,35.93
2022-09-12T12:55:23.498Z,35.42
2022-09-12T12:58:14.711Z,35.68
2022-09-12T13:00:41.903Z,35.60
2022-09-12T13:03:29.065Z,35.11
2022-09-12T13:06:00.877Z,34.88
2022-09-12T13:08:32.566Z,35.00
2022-09-12T13:11:01.597Z,34.91
2022-09-12T13:13:51.941Z,35.07
2022-09-12T13:16:34.279Z,35.19
2022-09-12T13:19:17.457Z,35.58
2022-09-12T13:22:07.618Z,34.88
2022-09-12T13:24:35.694Z,35.26
2022-09-12T13:27:02.856Z,35.05
2022-09-12T13:29:29.737Z,34.75
2022-09-12T13:32:00.833Z,34.58
2022-09-12T13:34:31.383Z,34.74
2022-09-12T13:37:13.363Z,34.42
2022-09-12T13:40:01.335Z,34.42
2022-09-12T13:43:00.485Z,34.42
2022-09-12T13:45:27.548Z,34.71
2022-09-12T13:48:02.081Z,35.10
2022-09-12T13:50:32.212Z,35.10
2022-09-12T13:53:03.700Z,34.72
2022-09-12T13:55:39.360Z,34.68
2022-09-12T13:58:15.975Z,34.43
2022-09-12T14:00:42.819Z,34.67
2022-09-12T14:03:44.791Z,34.90
2022-09-12T14:06:12.724Z,34.77
2022-09-12T14:08:41.604Z,34.74
2022-09-12T14:11:11.983Z,34.61
2022-09-12T14:13:41.511Z,34.76
2022-09-12T14:16:10.290Z,34.73
2022-09-12T14:18:37.893Z,34.77
2022-09-12T14:21:12.808Z,35.19
2022-09-12T14:23:43.275Z,34.86
2022-09-12T14:26:12.400Z,35.17
2022-09-12T14:28:42.463Z,35.32
2022-09-12T14:31:15.953Z,35.24
2022-09-12T14:33:47.211Z,35.37
2022-09-12T14:36:24.663Z,35.29
2022-09-12T14:38:55.530Z,35.20
2022-09-12T14:41:27.980Z,35.59
2022-09-12T14:43:57.179Z,35.40
2022-09-12T14:46:32.349Z,35.45
2022-09-12T14:49:06.876Z,35.47
2022-09-12T14:51:34.739Z,35.20
2022-09-12T14:54:01.611Z,35.47
2022-09-12T14:56:42.321Z,35.75
2022-09-12T14:59:35.235Z,35.58
2022-09-12T15:02:14.465Z,35.62
2022-09-12T15:04:42.158Z,36.31
2022-09-12T15:07:34.018Z,36.51
2022-09-12T15:10:02.465Z,36.57
2022-09-12T15:12:29.421Z,36.31
2022-09-12T15:15:18.955Z,36.25
2022-09-12T15:17:45.869Z,36.27
2022-09-12T15:20:13.461Z,36.31
2022-09-12T15:22:40.596Z,36.02
2022-09-12T15:25:07.995Z,36.07
2022-09-12T15:27:34.804Z,36.13
2022-09-12T15:30:02.547Z,35.94
2022-09-12T15:32:29.768Z,35.88
2022-09-12T15:34:57.165Z,36.21
2022-09-12T15:37:24.225Z,36.06
2022-09-12T15:39:51.301Z,36.29
2022-09-12T15:42:19.016Z,36.05
2022-09-12T15:44:45.963Z,35.94
2022-09-12T15:47:13.436Z,36.14
2022-09-12T15:49:40.743Z,36.12
2022-09-12T15:52:08.199Z,36.15
2022-09-12T15:54:36.241Z,35.91
2022-09-12T15:57:03.120Z,36.00
2022-09-12T15:59:31.204Z,36.17
2022-09-12T16:01:58.506Z,35.83
2022-09-12T16:04:27.285Z,35.92
2022-09-12T16:06:54.887Z,36.07
2022-09-12T16:09:22.042Z,36.36
2022-09-12T16:11:48.962Z,36.02
2022-09-12T16:14:16.955Z,36.16
2022-09-12T16:16:43.961Z,36.79
2022-09-12T16:19:10.948Z,36.90
2022-09-12T16:21:37.920Z,36.35
2022-09-12T16:24:04.945Z,36.74
2022-09-12T16:26:31.856Z,36.39
2022-09-12T16:28:59.050Z,36.92
2022-09-12T16:31:26.408Z,36.71
2022-09-12T16:33:53.452Z,36.71
2022-09-12T16:36:21.238Z,36.91
2022-09-12T16:38:49.470Z,36.88
2022-09-12T16:41:17.007Z,37.16
2022-09-12T16:43:44.067Z,37.20
2022-09-12T16:46:19.014Z,37.31
2022-09-12T16:48:52.352Z,37.15
2022-09-12T16:51:26.864Z,37.03
2022-09-12T16:53:54.540Z,37.18
2022-09-12T16:56:21.448Z,37.58
2022-09-12T16:58:48.363Z,37.26
2022-09-12T17:01:17.444Z,37.26
2022-09-12T17:03:44.307Z,37.41
2022-09-12T17:06:12.714Z,37.69
2022-09-12T17:08:41.318Z,37.52
2022-09-12T17:11:12.523Z,37.79
2022-09-12T17:14:00.589Z,37.75
2022-09-12T17:16:27.116Z,37.45
2022-09-12T17:18:54.070Z,37.69
2022-09-12T17:21:21.294Z,37.69
2022-09-12T17:23:48.394Z,38.00
2022-09-12T17:26:15.599Z,38.04
2022-09-12T17:28:42.535Z,38.00
2022-09-12T17:31:10.954Z,38.21
2022-09-12T17:33:39.086Z,38.19
2022-09-12T17:36:16.653Z,38.13
2022-09-12T17:38:44.493Z,38.27
2022-09-12T17:41:19.617Z,38.13
2022-09-12T17:43:51.354Z,38.22
2022-09-12T17:46:19.374Z,38.33
2022-09-12T17:48:54.149Z,38.62
2022-09-12T17:51:21.705Z,38.45
2022-09-12T17:53:48.686Z,38.46
2022-09-12T17:56:15.708Z,38.61
2022-09-12T17:58:42.576Z,38.57
2022-09-12T18:01:33.887Z,38.90
2022-09-12T18:04:01.511Z,38.85
2022-09-12T18:06:28.723Z,39.06
2022-09-12T18:08:55.743Z,39.24
2022-09-12T18:11:22.615Z,38.92
2022-09-12T18:13:49.548Z,39.36
2022-09-12T18:16:17.608Z,39.28
2022-09-12T18:18:44.553Z,39.23
2022-09-12T18:21:11.783Z,39.30
2022-09-12T18:23:38.738Z,39.45
2022-09-12T18:26:07.306Z,39.47
2022-09-12T18:28:38.300Z,39.55
2022-09-12T18:31:06.722Z,39.82
2022-09-12T18:33:34.022Z,39.84
2022-09-12T18:36:07.513Z,39.95
2022-09-12T18:38:34.367Z,39.94
2022-09-12T18:41:05.096Z,40.08
2022-09-12T18:43:32.139Z,40.12
2022-09-12T18:46:05.638Z,40.06
2022-09-12T18:48:32.940Z,40.05
2022-09-12T18:51:19.069Z,40.29
2022-09-12T18:53:56.375Z,40.54
2022-09-12T18:56:24.415Z,40.42
2022-09-12T18:58:52.952Z,40.42
2022-09-12T19:01:38.760Z,40.42
2022-09-12T19:04:07.757Z,40.80
2022-09-12T19:06:44.692Z,40.65
2022-09-12T19:09:12.320Z,40.90
2022-09-12T19:11:40.288Z,40.85
2022-09-12T19:14:07.784Z,41.17
2022-09-12T19:16:34.846Z,41.04
2022-09-12T19:19:02.672Z,40.94
2022-09-12T19:21:30.420Z,41.14
2022-09-12T19:24:01.625Z,41.08
2022-09-12T19:26:28.487Z,40.97
2022-09-12T19:28:55.622Z,41.24
2022-09-12T19:31:23.339Z,41.34
2022-09-12T19:33:50.548Z,41.19
2022-09-12T19:36:41.259Z,41.28
2022-09-12T19:39:05.821Z,41.24
2022-09-12T19:41:33.011Z,41.31
2022-09-12T19:43:59.894Z,41.53
2022-09-12T19:46:26.924Z,41.46
2022-09-12T19:48:54.129Z,41.60
2022-09-12T19:51:21.338Z,41.88
2022-09-12T19:53:50.200Z,41.90
2022-09-12T19:56:17.153Z,41.94
2022-09-12T19:58:45.374Z,41.97
2022-09-12T20:01:13.900Z,41.80
2022-09-12T20:03:41.212Z,42.58
2022-09-12T20:06:09.753Z,42.43
2022-09-12T20:08:37.834Z,42.95
2022-09-12T20:11:04.849Z,42.19
2022-09-12T20:13:31.707Z,41.96
2022-09-12T20:16:06.565Z,42.16
2022-09-12T20:18:33.644Z,42.33
2022-09-12T20:21:11.229Z,42.72
2022-09-12T20:23:38.165Z,42.55
2022-09-12T20:26:05.251Z,42.33
2022-09-12T20:28:32.310Z,42.37
2022-09-12T20:31:07.348Z,42.31
2022-09-12T20:33:34.408Z,42.33
2022-09-12T20:36:10.892Z,42.31
2022-09-12T20:38:37.947Z,42.58
2022-09-12T20:41:06.048Z,42.47
2022-09-12T20:43:32.909Z,42.53
2022-09-12T20:45:59.865Z,42.51
2022-09-12T20:48:26.936Z,42.63
2022-09-12T20:50:53.750Z,42.60
2022-09-12T20:53:20.953Z,42.58
2022-09-12T20:55:51.562Z,42.85
2022-09-12T20:58:19.347Z,42.67
2022-09-12T21:00:46.816Z,42.83
2022-09-12T21:03:14.493Z,42.69
2022-09-12T21:05:45.037Z,42.89
2022-09-12T21:08:12.139Z,42.91
2022-09-12T21:10:42.587Z,43.02
2022-09-12T21:13:10.435Z,42.99
2022-09-12T21:15:38.715Z,43.15
2022-09-12T21:18:05.743Z,43.11
2022-09-12T21:20:32.623Z,43.16
2022-09-12T21:22:59.730Z,43.30
2022-09-12T21:25:28.524Z,43.50
2022-09-12T21:27:55.410Z,43.31
2022-09-12T21:30:22.527Z,43.23
2022-09-12T21:32:49.342Z,43.42
2022-09-12T21:35:16.357Z,43.29
2022-09-12T21:37:43.320Z,43.72
2022-09-12T21:40:10.463Z,43.50
2022-09-12T21:42:37.377Z,43.57
2022-09-12T21:45:04.703Z,43.70
2022-09-12T21:47:31.507Z,43.75
2022-09-12T21:49:58.673Z,43.73
2022-09-12T21:52:25.731Z,43.75
2022-09-12T21:54:52.550Z,43.72
2022-09-12T21:57:19.468Z,44.04
2022-09-12T21:59:46.418Z,43.69
2022-09-12T22:02:13.844Z,44.12
2022-09-12T22:04:40.715Z,44.11
2022-09-12T22:07:07.962Z,44.19
2022-09-12T22:09:34.994Z,44.19
2022-09-12T22:12:02.421Z,44.31
2022-09-12T22:14:29.716Z,44.22
2022-09-12T22:16:56.915Z,44.28
2022-09-12T22:19:23.776Z,44.08
2022-09-12T22:22:09.321Z,44.21
2022-09-12T22:24:36.197Z,44.30
2022-09-12T22:27:04.658Z,44.39
2022-09-12T22:29:31.703Z,44.35
2022-09-12T22:31:59.145Z,44.38
2022-09-12T22:34:26.603Z,44.37
2022-09-12T22:36:53.480Z,44.46
2022-09-12T22:39:20.333Z,44.50
2022-09-12T22:41:47.188Z,44.46
2022-09-12T22:44:14.302Z,44.50
2022-09-12T22:46:41.392Z,44.50
2022-09-12T22:49:08.275Z,44.63
2022-09-12T22:51:35.370Z,44.61
2022-09-12T22:54:02.329Z,44.71
2022-09-12T22:56:29.254Z,44.59
2022-09-12T22:58:56.133Z,44.70
2022-09-12T23:01:23.983Z,44.78
2022-09-12T23:03:51.230Z,44.93
2022-09-12T23:06:18.167Z,44.90
2022-09-12T23:08:45.042Z,45.10
2022-09-12T23:11:14.006Z,44.93
2022-09-12T23:13:44.853Z,44.98
2022-09-12T23:16:22.789Z,45.07
2022-09-12T23:18:49.894Z,45.07
2022-09-12T23:21:17.956Z,45.02
2022-09-12T23:23:44.810Z,45.04
2022-09-12T23:26:17.313Z,45.05
2022-09-12T23:28:48.983Z,45.09
2022-09-12T23:31:17.152Z,45.11
2022-09-12T23:33:44.347Z,45.13
2022-09-12T23:36:14.389Z,45.18
2022-09-12T23:38:42.515Z,45.21
2022-09-12T23:41:09.501Z,45.28
2022-09-12T23:43:36.345Z,45.09
2022-09-12T23:46:04.609Z,45.25
2022-09-12T23:48:32.076Z,45.26
2022-09-12T23:50:59.247Z,45.31
2022-09-12T23:53:26.086Z,45.15
2022-09-12T23:55:52.942Z,45.38
2022-09-12T23:58:21.586Z,45.21
